OE2ATN Weather Reports


time (UTC)temp
F
wind
direction
speed
knots
gust
knots
rain 1hr
in
rain 24hr
in
rain mn
in
humidity
%
barometer
mb
20260906064301 60 134 2.6 4.3 0.00 0.05 0.00 1 1035.8
20260906063800 60 117 3.5 4.3 0.00 0.05 0.00 1 1035.7
20260906063302 61 106 1.7 3.5 0.00 0.05 0.00 1 1035.7
20260906062801 61 138 0.0 0.9 0.00 0.05 0.00 1 1035.7
20260906062301 60 283 0.0 0.0 0.00 0.05 0.00 1 1035.7
20260906061801 60 292 0.0 0.9 0.00 0.05 0.00 1 1035.6
20260906061301 60 292 0.0 0.9 0.00 0.05 0.00 1 1035.6
20260906060801 60 292 0.0 0.9 0.00 0.05 0.00 1 1035.5
20260906060301 60 289 0.0 0.9 0.00 0.05 0.00 1 1035.5
20260906055801 59 289 0.0 0.0 0.00 0.05 0.00 1 1035.5
20260906055300 59 289 0.0 0.0 0.00 0.05 0.00 1 1035.4
20260906054800 58 144 0.0 0.0 0.00 0.05 0.00 1 1035.4
20260906054301 58 144 0.0 0.0 0.00 0.05 0.00 1 1035.5
20260906053801 57 144 0.0 0.0 0.00 0.05 0.00 1 1035.4
20260906053300 57 144 0.0 0.9 0.00 0.05 0.00 1 1035.4
20260906052801 56 144 0.0 1.7 0.00 0.05 0.00 1 1035.4
20260906052305 56 144 0.9 1.7 0.00 0.05 0.00 1 1035.4
20260906051802 56 278 0.0 0.9 0.00 0.05 0.00 1 1035.2
20260906051301 56 271 0.0 0.9 0.00 0.05 0.00 1 1035.4
20260906050801 56 227 0.0 0.0 0.00 0.05 0.00 1 1035.2
20260906050301 56 221 0.0 0.0 0.00 0.05 0.00 1 1035.2
20260906045801 56 220 0.0 0.0 0.00 0.05 0.00 1 1035.2
20260906045305 56 221 0.0 0.0 0.00 0.05 0.00 1 1035.1
20260906044800 56 220 0.0 1.7 0.00 0.05 0.00 1 1035.1
20260906044301 56 220 0.9 1.7 0.00 0.05 0.00 1 1035.1
20260906043801 57 276 0.0 0.0 0.00 0.05 0.00 1 1035.2
20260906043300 57 276 0.0 0.0 0.00 0.05 0.00 1 1035.2
20260906042801 57 276 0.0 0.0 0.00 0.05 0.00 1 1035.1
20260906042301 56 276 0.0 0.0 0.00 0.05 0.00 1 1035.0
20260906041801 56 276 0.0 0.0 0.00 0.05 0.00 1 1035.1
20260906041301 57 276 0.0 0.9 0.00 0.05 0.00 1 1035.1
20260906040801 57 282 0.0 0.9 0.00 0.05 0.00 1 1035.0
20260906040301 56 261 0.0 0.9 0.00 0.05 0.00 1 1035.1
20260906035801 56 261 0.0 0.0 0.00 0.05 0.00 1 1035.1
20260906035300 57 259 0.0 0.0 0.00 0.05 0.00 1 1035.0
20260906034801 57 259 0.0 0.0 0.00 0.05 0.00 1 1035.0
20260906034301 57 259 0.0 0.0 0.00 0.05 0.00 1 1035.0
20260906033801 56 259 0.0 0.0 0.00 0.05 0.00 1 1034.9
20260906033302 57 259 0.0 0.0 0.00 0.05 0.00 1 1034.9
20260906032802 56 259 0.0 0.0 0.00 0.05 0.00 1 1034.9
20260906032305 56 259 0.0 0.0 0.00 0.05 0.00 1 1034.9
20260906031802 56 259 0.0 0.0 0.00 0.05 0.00 1 1034.8
20260906031301 56 259 0.0 0.9 0.00 0.05 0.00 1 1034.9
20260906030801 56 259 0.0 0.9 0.00 0.05 0.00 1 1034.7
20260906030301 56 254 0.0 0.9 0.00 0.05 0.00 1 1034.7
20260906025801 56 212 0.0 0.9 0.00 0.05 0.00 1 1034.8
20260906025301 57 14 0.0 0.0 0.00 0.05 0.00 1 1034.7
20260906024800 56 14 0.0 0.9 0.00 0.05 0.00 1 1034.7
20260906024301 57 14 0.0 0.9 0.00 0.05 0.00 1 1034.7
20260906023801 57 151 0.0 0.9 0.00 0.05 0.00 1 1034.8
20260906023301 57 137 0.0 0.9 0.00 0.05 0.00 1 1034.7
20260906022803 57 103 0.0 0.9 0.00 0.05 0.00 1 1034.7
20260906022300 57 96 0.0 0.0 0.00 0.05 0.00 1 1034.7
20260906021802 57 212 0.0 0.0 0.00 0.05 0.00 1 1034.8
20260906021301 58 212 0.0 0.0 0.00 0.05 0.00 1 1034.8
20260906020801 58 212 0.0 0.0 0.00 0.05 0.00 1 1034.8
20260906020301 58 241 0.0 0.0 0.00 0.05 0.00 1 1034.7
20260906015801 58 241 0.0 0.0 0.00 0.05 0.00 1 1034.8
20260906015305 58 241 0.0 0.0 0.00 0.05 0.00 1 1034.9
20260906014800 58 241 0.0 0.9 0.00 0.05 0.00 1 1034.8
20260906014301 58 241 0.0 0.9 0.00 0.05 0.00 1 1034.9
20260906013801 58 241 0.0 0.0 0.00 0.05 0.00 1 1034.8
20260906013300 58 241 0.0 0.0 0.00 0.05 0.00 1 1034.8
20260906012801 58 240 0.0 0.0 0.00 0.05 0.00 1 1034.8
20260906012305 58 241 0.0 0.0 0.00 0.05 0.00 1 1034.7
20260906011802 58 240 0.0 0.0 0.00 0.05 0.00 1 1034.8
20260906011303 58 241 0.0 0.0 0.00 0.05 0.00 1 1034.8
20260906010801 58 240 0.0 0.0 0.00 0.05 0.00 1 1034.8
20260906010301 58 241 0.0 0.0 0.00 0.05 0.00 1 1034.9
20260906005802 58 241 0.0 0.0 0.00 0.05 0.00 1 1034.8
20260906005301 58 240 0.0 0.0 0.00 0.05 0.00 1 1034.7
20260906004801 58 240 0.0 0.0 0.00 0.05 0.00 1 1034.7
20260906004300 58 240 0.0 0.0 0.00 0.05 0.00 1 1034.7
20260906003801 58 240 0.0 0.0 0.00 0.05 0.00 1 1034.7
20260906003301 58 241 0.0 0.0 0.00 0.05 0.00 1 1034.7
20260906002800 58 241 0.0 0.0 0.00 0.05 0.00 1 1034.7
20260906002300 58 241 0.0 0.0 0.00 0.05 0.00 1 1034.7
20260906001800 58 241 0.0 0.0 0.00 0.05 0.00 1 1034.7
20260906001301 59 206 0.0 0.0 0.00 0.05 0.00 1 1034.7
20260906000802 59 206 0.0 0.0 0.00 0.05 0.00 1 1034.7
20260906000303 59 206 0.0 0.0 0.00 0.05 0.00 1 1034.7
20260905235803 59 310 0.0 0.0 0.00 0.05 0.00 1 1034.8
20260905235301 59 310 0.0 0.0 0.00 0.05 0.00 1 1034.8
20260905234801 59 310 0.0 0.0 0.00 0.05 0.00 1 1034.7
20260905234301 58 310 0.0 0.0 0.00 0.05 0.00 1 1034.7
20260905233800 58 310 0.0 0.0 0.00 0.05 0.00 1 1034.7
20260905233301 58 310 0.0 0.9 0.00 0.05 0.00 1 1034.7
20260905232801 58 309 0.0 0.9 0.00 0.05 0.00 1 1034.8
20260905232301 58 159 0.0 0.0 0.00 0.05 0.00 1 1034.7
20260905231801 59 204 0.0 0.0 0.00 0.05 0.00 1 1034.7
20260905231300 59 283 0.0 0.0 0.00 0.05 0.00 1 1034.7
20260905230801 59 283 0.0 0.0 0.00 0.05 0.00 1 1034.7
20260905230302 59 283 0.0 0.0 0.00 0.05 0.00 1 1034.6
20260905225801 58 283 0.0 1.7 0.00 0.05 0.00 1 1034.7
20260905225305 59 283 0.0 1.7 0.00 0.05 0.00 1 1034.6
20260905224801 59 278 0.0 0.0 0.00 0.05 0.00 1 1034.7
20260905224301 59 278 0.0 0.0 0.00 0.05 0.00 1 1034.4
20260905223801 59 278 0.0 0.0 0.00 0.05 0.00 1 1034.6
20260905223301 59 278 0.0 0.0 0.00 0.05 0.00 1 1034.7
20260905222801 59 276 0.0 0.0 0.00 0.05 0.00 1 1034.7
20260905222300 59 306 0.0 0.0 0.00 0.05 0.00 1 1034.8
20260905221801 59 321 0.0 0.9 0.00 0.05 0.00 1 1034.7
20260905221300 59 321 0.0 0.9 0.00 0.05 0.00 1 1034.7
20260905220800 58 321 0.0 0.9 0.00 0.05 0.00 1 1034.7
20260905220300 58 336 0.0 0.9 0.00 0.05 0.00 1 1034.4
20260905215802 58 16 0.0 0.0 0.00 0.05 0.05 1 1034.4
20260905215305 58 16 0.0 0.0 0.00 0.05 0.05 1 1034.4
20260905214803 58 16 0.0 0.9 0.00 0.05 0.05 1 1034.3
20260905214301 58 16 0.0 0.9 0.00 0.05 0.05 1 1034.3
20260905213800 58 243 0.0 0.9 0.00 0.05 0.05 1 1034.3
20260905213300 59 285 0.0 0.0 0.00 0.05 0.05 1 1034.3
20260905212800 59 285 0.0 1.7 0.00 0.05 0.05 1 1034.3
20260905212302 59 285 0.0 1.7 0.00 0.05 0.05 6 1034.2
20260905211800 59 37 0.0 0.0 0.00 0.05 0.05 1 1034.1
20260905211259 59 37 0.0 0.0 0.00 0.05 0.05 1 1034.2
20260905210759 59 89 0.0 0.0 0.00 0.05 0.05 1 1034.2
20260905210301 59 89 0.0 1.7 0.00 0.05 0.05 5 1034.1
20260905205802 60 89 0.0 1.7 0.00 0.05 0.05 15 1034.1
20260905205300 60 125 0.9 1.7 0.00 0.05 0.05 15 1034.1
20260905204800 60 310 0.0 2.6 0.00 0.05 0.05 18 1034.0
20260905204259 60 299 0.9 2.6 0.00 0.05 0.05 21 1034.0
20260905203759 60 299 1.7 3.5 0.00 0.05 0.05 16 1034.0
20260905203259 60 326 0.0 3.5 0.00 0.05 0.05 16 1034.2
20260905202800 60 338 0.0 1.7 0.00 0.05 0.05 13 1034.1
20260905202300 60 293 0.0 1.7 0.00 0.05 0.05 13 1034.1
20260905201800 60 14 0.0 3.5 0.00 0.05 0.05 17 1034.1
20260905201258 60 355 0.0 3.5 0.00 0.05 0.05 16 1034.1
20260905200759 61 276 1.7 3.5 0.00 0.05 0.05 17 1034.1
20260905200258 61 326 1.7 3.5 0.00 0.05 0.05 19 1034.1
20260905195758 61 23 0.0 2.6 0.00 0.05 0.05 19 1034.0
20260905195259 61 296 0.0 2.6 0.00 0.05 0.05 22 1034.1
20260905194759 61 27 0.0 0.9 0.00 0.05 0.05 19 1033.9
20260905194300 61 357 0.0 0.9 0.00 0.05 0.05 20 1034.0
20260905193758 61 283 0.0 0.9 0.00 0.05 0.05 18 1033.9
20260905193259 61 283 0.0 0.9 0.00 0.05 0.05 19 1033.9
20260905192757 62 282 0.0 0.0 0.00 0.05 0.05 19 1033.9
20260905192258 62 282 0.0 0.0 0.00 0.05 0.05 20 1033.8
20260905191757 62 282 0.0 0.0 0.00 0.05 0.05 22 1033.9
20260905191258 62 282 0.0 0.9 0.00 0.05 0.05 23 1033.8
20260905190757 62 282 0.0 1.7 0.00 0.05 0.05 28 1033.8
20260905190258 62 278 0.9 1.7 0.00 0.05 0.05 33 1033.8
20260905185756 62 279 0.0 1.7 0.00 0.05 0.05 37 1033.7
20260905185258 62 309 0.0 1.7 0.00 0.05 0.05 33 1033.7
20260905184757 62 290 0.0 2.6 0.00 0.05 0.05 32 1033.6
20260905184257 62 303 0.0 2.6 0.00 0.05 0.05 32 1033.5
20260905183757 62 305 0.0 1.7 0.00 0.05 0.05 34 1033.4
20260905183256 62 334 0.0 1.7 0.00 0.05 0.05 29 1033.1
20260905182756 62 303 0.0 0.9 0.00 0.05 0.05 27 1033.1
20260905182257 62 303 0.0 0.9 0.00 0.05 0.05 31 1033.1
20260905181758 62 299 0.0 0.9 0.00 0.05 0.05 35 1033.0
20260905181256 62 299 0.0 2.6 0.00 0.05 0.05 34 1033.1
20260905180755 62 279 1.7 3.5 0.00 0.05 0.05 36 1033.0
20260905180257 62 286 1.7 3.5 0.00 0.05 0.05 40 1032.9
20260905175756 63 295 0.0 0.9 0.00 0.05 0.05 46 1032.9
20260905175257 63 312 0.0 0.9 0.00 0.05 0.05 45 1032.9
20260905174757 63 333 0.0 0.9 0.00 0.05 0.05 43 1032.9
20260905174256 63 309 0.0 2.6 0.00 0.05 0.05 43 1032.8
20260905173755 62 289 0.0 2.6 0.00 0.05 0.05 42 1032.9
20260905173255 63 307 0.0 1.7 0.00 0.05 0.05 48 1032.8
20260905172757 63 292 0.0 1.7 0.00 0.05 0.05 52 1032.8
20260905172255 64 10 0.0 0.9 0.00 0.05 0.05 55 1032.8
20260905171755 64 266 0.0 0.0 0.00 0.05 0.05 53 1032.8
20260905171255 64 266 0.0 1.7 0.00 0.05 0.05 55 1032.8
20260905170754 64 266 0.9 1.7 0.00 0.05 0.05 57 1032.8
20260905170254 64 21 0.0 2.6 0.00 0.05 0.05 57 1032.7
20260905165755 64 296 1.7 3.5 0.00 0.05 0.05 55 1032.8
20260905165256 64 312 0.0 5.2 0.00 0.05 0.05 56 1032.7
20260905164756 65 281 1.7 5.2 0.00 0.05 0.05 61 1032.8
20260905164254 65 123 0.9 1.7 0.00 0.05 0.05 65 1032.7
20260905163754 65 241 0.0 1.7 0.00 0.05 0.05 64 1032.7
20260905163254 65 241 0.0 3.5 0.00 0.05 0.05 66 1032.7
20260905162754 66 109 0.0 3.5 0.00 0.05 0.05 67 1032.6
20260905162253 66 16 0.9 1.7 0.00 0.05 0.05 67 1032.5
20260905161754 66 296 0.0 1.7 0.00 0.05 0.05 67 1032.5
20260905161254 66 269 0.0 2.6 0.00 0.05 0.05 67 1032.5
20260905160754 66 320 0.0 2.6 0.00 0.05 0.05 67 1032.5
20260905160252 67 245 0.0 5.2 0.00 0.05 0.05 67 1032.3
20260905155754 67 235 1.7 5.2 0.00 0.05 0.05 67 1032.4
20260905155253 66 228 3.5 5.2 0.00 0.05 0.05 67 1032.4
20260905154753 66 199 0.0 6.1 0.01 0.05 0.05 67 1032.4
20260905154253 66 290 1.7 7.8 0.01 0.05 0.05 66 1032.4
20260905153752 65 295 2.6 8.7 0.01 0.05 0.05 67 1032.4
20260905153253 65 39 4.3 8.7 0.01 0.05 0.05 66 1032.4
20260905152754 65 0 2.6 9.6 0.01 0.05 0.05 65 1032.5
20260905152254 64 30 5.2 9.6 0.01 0.05 0.05 64 1032.6
20260905151752 64 310 2.6 8.7 0.01 0.05 0.05 56 1032.6
20260905151252 63 329 3.5 7.8 0.01 0.05 0.05 55 1032.7
20260905150752 63 314 3.5 6.1 0.01 0.05 0.05 56 1032.7
20260905150252 63 4 2.6 6.1 0.01 0.05 0.05 52 1032.6
20260905145752 63 21 1.7 9.6 0.01 0.04 0.05 48 1032.6
20260905145252 63 307 0.9 15.6 0.01 0.04 0.05 51 1032.6
20260905144753 64 288 7.0 17.4 0.00 0.04 0.04 59 1032.3
20260905144252 65 283 13.0 19.1 0.00 0.04 0.04 62 1032.2
20260905143751 65 293 9.6 19.1 0.00 0.04 0.04 65 1032.0
20260905143251 66 286 3.5 7.8 0.00 0.04 0.04 63 1032.0
20260905142751 65 327 2.6 8.7 0.00 0.04 0.04 60 1031.7
20260905142252 65 261 3.5 15.6 0.00 0.04 0.04 59 1031.9
20260905141751 66 288 6.1 15.6 0.00 0.04 0.04 61 1031.9
20260905141251 67 272 10.4 14.8 0.00 0.04 0.04 67 1031.6
20260905140751 68 233 11.3 17.4 0.00 0.04 0.04 67 1031.5
20260905140250 68 288 7.8 17.4 0.00 0.04 0.04 66 1031.3
20260905135750 69 266 9.6 17.4 0.00 0.04 0.04 66 1031.0
20260905135252 69 282 10.4 18.2 0.00 0.04 0.04 66 1031.0
20260905134750 70 279 6.1 18.2 0.00 0.04 0.04 65 1030.9
20260905134251 71 300 7.8 15.6 0.00 0.04 0.04 64 1030.8
20260905133750 71 268 7.8 16.5 0.00 0.04 0.04 63 1030.7
20260905133250 72 254 9.6 16.5 0.00 0.04 0.04 63 1030.7
20260905132750 72 261 6.1 10.4 0.00 0.04 0.04 61 1030.6
20260905132250 72 292 7.0 13.0 0.00 0.04 0.04 62 1030.3
20260905131751 72 292 5.2 13.0 0.00 0.04 0.04 61 1030.4
20260905131250 73 290 7.8 15.6 0.00 0.04 0.04 59 1030.3
20260905130750 73 286 6.1 15.6 0.00 0.04 0.04 58 1030.3
20260905130251 73 285 9.6 14.8 0.00 0.04 0.04 58 1030.2
20260905125750 74 281 12.2 14.8 0.00 0.04 0.04 58 1030.2
20260905125250 74 276 7.8 17.4 0.00 0.04 0.04 57 1030.1
20260905124749 74 274 10.4 19.1 0.00 0.04 0.04 55 1030.0
20260905124249 75 275 13.0 19.1 0.00 0.04 0.04 56 1030.2
20260905123749 75 247 11.3 15.6 0.00 0.04 0.04 54 1030.2
20260905123248 75 282 11.3 15.6 0.00 0.04 0.04 53 1030.2
20260905122750 75 272 8.7 14.8 0.00 0.04 0.04 55 1030.1
20260905122250 75 281 11.3 14.8 0.00 0.04 0.04 52 1030.0
20260905121748 74 279 9.6 13.9 0.00 0.04 0.04 55 1030.2
20260905121251 74 255 7.8 13.0 0.00 0.04 0.04 53 1030.2
20260905120749 74 262 8.7 14.8 0.00 0.04 0.04 54 1030.2
20260905120248 74 278 8.7 14.8 0.00 0.04 0.04 55 1030.2
20260905115748 75 259 7.8 12.2 0.00 0.04 0.04 56 1030.2
20260905115249 75 288 5.2 12.2 0.00 0.04 0.04 54 1030.4
20260905114749 75 271 7.8 12.2 0.00 0.04 0.04 52 1030.4
20260905114248 75 271 1.7 8.7 0.00 0.04 0.04 55 1030.6
20260905113750 75 195 1.7 12.2 0.00 0.04 0.04 58 1030.4
20260905113247 74 290 3.5 12.2 0.00 0.04 0.04 59 1030.6
20260905112748 74 329 1.7 8.7 0.00 0.04 0.04 58 1030.4
20260905112247 73 47 2.6 7.8 0.00 0.04 0.04 64 1030.6
20260905111748 72 133 1.7 7.8 0.00 0.04 0.04 66 1030.7
20260905111247 71 100 4.3 6.1 0.00 0.04 0.04 66 1030.7
20260905110747 70 90 4.3 6.1 0.00 0.04 0.04 67 1030.9
20260905110247 69 130 1.7 4.3 0.00 0.04 0.04 66 1030.9
20260905105746 69 123 3.5 4.3 0.00 0.04 0.04 65 1030.9
20260905105249 68 103 2.6 6.1 0.00 0.04 0.04 64 1030.9
20260905104749 68 103 2.6 8.7 0.00 0.04 0.04 64 1031.0
20260905104249 68 120 4.3 8.7 0.00 0.04 0.04 63 1031.0
20260905103746 68 116 3.5 6.1 0.00 0.04 0.04 60 1031.0
20260905103246 67 120 2.6 6.1 0.00 0.04 0.04 60 1030.9
20260905102746 67 116 4.3 7.8 0.00 0.04 0.04 59 1031.0
20260905102246 67 134 3.5 7.8 0.00 0.04 0.04 62 1031.1
20260905101748 66 107 2.6 7.8 0.00 0.04 0.04 63 1031.1
20260905101247 66 76 3.5 7.8 0.00 0.04 0.04 61 1031.2
20260905100746 66 127 5.2 8.7 0.00 0.04 0.04 58 1031.2
20260905100246 65 114 5.2 8.7 0.00 0.04 0.04 61 1031.2
20260905095746 65 107 3.5 5.2 0.00 0.04 0.04 44 1031.3
20260905095246 65 120 4.3 5.2 0.00 0.04 0.04 49 1031.4
20260905094746 65 106 2.6 5.2 0.00 0.04 0.04 48 1031.5
20260905094247 64 137 3.5 4.3 0.00 0.04 0.04 42 1031.4
20260905093745 64 97 0.9 2.6 0.00 0.04 0.04 42 1031.5
20260905093244 64 118 1.7 2.6 0.00 0.04 0.04 38 1031.6
20260905092745 64 180 0.9 2.6 0.00 0.04 0.04 47 1031.5
20260905092246 64 107 0.0 2.6 0.00 0.04 0.04 48 1031.6
20260905091744 64 97 0.0 2.6 0.00 0.04 0.04 40 1031.4
20260905091245 63 120 0.0 1.7 0.00 0.04 0.04 34 1031.3
20260905090745 63 82 0.0 1.7 0.00 0.04 0.04 39 1031.3
20260905090245 63 85 0.0 1.7 0.00 0.04 0.04 40 1031.4
20260905085744 63 144 0.0 1.7 0.00 0.04 0.04 44 1031.3
20260905085244 63 209 0.0 1.7 0.00 0.04 0.04 37 1031.4
20260905084745 63 185 0.9 3.5 0.01 0.04 0.04 39 1031.2
20260905084245 62 223 0.9 4.3 0.02 0.04 0.04 40 1031.3
20260905083745 62 161 2.6 4.3 0.04 0.04 0.04 36 1031.2
20260905083244 62 103 0.0 2.6 0.04 0.04 0.04 32 1031.2
20260905082744 62 262 0.9 3.5 0.04 0.04 0.04 31 1031.1
20260905082243 62 226 1.7 9.6 0.04 0.04 0.04 39 1031.1
20260905081743 62 286 3.5 11.3 0.04 0.04 0.04 52 1030.9
20260905081244 62 279 3.5 13.9 0.04 0.04 0.04 49 1031.0
20260905080744 62 331 4.3 13.9 0.04 0.04 0.04 40 1031.0
20260905080245 61 296 6.1 9.6 0.04 0.04 0.04 43 1030.9
20260905075743 61 278 5.2 14.8 0.04 0.00 0.04 31 1030.9
20260905075243 61 286 7.8 14.8 0.04 0.00 0.04 35 1030.9
20260905074743 62 296 9.6 15.6 0.03 0.00 0.03 45 1030.9
20260905074243 63 290 8.7 15.6 0.02 0.00 0.02 62 1030.4
20260905073743 64 274 9.6 17.4 0.00 0.00 0.00 67 1030.2
20260905073242 64 310 7.8 17.4 0.00 0.00 0.00 67 1030.0
20260905072743 64 299 7.8 16.5 0.00 0.00 0.00 67 1029.8
20260905072241 65 306 11.3 16.5 0.00 0.00 0.00 67 1029.6
20260905071743 65 278 6.1 13.0 0.00 0.00 0.00 67 1029.5
20260905071242 66 8 5.2 13.0 0.00 0.00 0.00 66 1029.4
20260905070742 66 333 2.6 11.3 0.00 0.00 0.00 64 1029.5
20260905070242 66 337 3.5 11.3 0.00 0.00 0.00 62 1029.4
20260905065742 65 307 0.9 8.7 0.00 0.00 0.00 59 1029.2
20260905065242 65 305 3.5 10.4 0.00 0.00 0.00 57 1029.2
20260905064743 65 278 7.0 10.4 0.00 0.00 0.00 54 1028.9